Time;durP1;ratioP1;P1;durP2;ratioP2;P2;SDS_P1;SDS_P2;PMS_P1;PMS_P2;Temp;Humidity;BMP_temperature;BMP_pressure;BME280_temperature;BME280_humidity;BME280_pressure;Samples;Min_cycle;Max_cycle;Signal;HPM_P1;HPM_P2
2023/08/16 00:00:48;;;;;;;7.25;3.97;;;;;;;18.90;nan;101844.50;5022293;28;20037;-73
2023/08/16 00:03:13;;;;;;;7.13;4.00;;;;;;;18.84;nan;101840.34;5021558;28;20095;-74
2023/08/16 00:05:42;;;;;;;6.20;3.90;;;;;;;18.83;nan;101846.53;5027710;28;20468;-73
2023/08/16 00:08:07;;;;;;;8.35;4.10;;;;;;;18.79;nan;101847.59;5026295;28;20096;-73
2023/08/16 00:10:33;;;;;;;4.88;3.30;;;;;;;18.82;nan;101858.03;5028836;28;20025;-73
2023/08/16 00:12:58;;;;;;;9.15;4.03;;;;;;;18.80;nan;101857.25;5024205;28;20108;-73
2023/08/16 00:15:26;;;;;;;8.63;3.63;;;;;;;18.86;nan;101854.34;5025283;28;20037;-73
2023/08/16 00:17:51;;;;;;;6.15;3.40;;;;;;;18.85;nan;101855.25;5017272;28;20037;-73
2023/08/16 00:20:17;;;;;;;6.65;3.63;;;;;;;18.82;nan;101855.38;5027308;28;20051;-73
2023/08/16 00:22:42;;;;;;;9.57;3.85;;;;;;;18.82;nan;101855.38;5026062;28;20029;-73
2023/08/16 00:25:08;;;;;;;6.72;3.50;;;;;;;18.79;nan;101854.66;5024264;28;20025;-73
2023/08/16 00:27:34;;;;;;;12.15;3.92;;;;;;;18.63;nan;101843.84;5024630;28;20025;-74
2023/08/16 00:29:59;;;;;;;8.50;3.50;;;;;;;18.65;nan;101849.94;5025597;28;20018;-73
2023/08/16 00:32:24;;;;;;;4.85;3.53;;;;;;;18.64;nan;101843.78;5023274;28;20477;-73
2023/08/16 00:34:50;;;;;;;6.68;3.33;;;;;;;18.53;nan;101853.91;5025263;28;20405;-73
2023/08/16 00:37:15;;;;;;;6.70;4.05;;;;;;;18.46;nan;101853.31;5024032;28;20038;-73
2023/08/16 00:39:40;;;;;;;7.32;3.70;;;;;;;18.39;nan;101854.47;5025280;28;20025;-74
2023/08/16 00:42:06;;;;;;;6.60;4.10;;;;;;;18.29;nan;101861.06;5023797;28;20025;-73
2023/08/16 00:44:31;;;;;;;7.13;4.53;;;;;;;18.22;nan;101863.06;5024727;28;20061;-73
2023/08/16 00:46:57;;;;;;;8.48;4.40;;;;;;;18.13;nan;101866.06;5024193;28;20029;-73
2023/08/16 00:49:22;;;;;;;8.10;4.38;;;;;;;18.05;nan;101862.00;5022105;28;20117;-73
2023/08/16 00:51:48;;;;;;;5.90;3.88;;;;;;;17.98;nan;101869.28;5025416;28;20483;-73
2023/08/16 00:54:14;;;;;;;8.75;4.82;;;;;;;18.01;nan;101879.72;5023129;28;20034;-73
2023/08/16 00:56:39;;;;;;;8.00;4.45;;;;;;;17.97;nan;101865.78;5022555;28;20029;-73
2023/08/16 00:59:05;;;;;;;7.25;3.72;;;;;;;17.97;nan;101876.34;5023594;28;20029;-73
2023/08/16 01:01:31;;;;;;;5.82;4.10;;;;;;;17.93;nan;101885.31;5021137;28;20033;-73
2023/08/16 01:03:56;;;;;;;5.15;4.55;;;;;;;17.88;nan;101867.91;5026354;28;20032;-72
2023/08/16 01:06:23;;;;;;;6.90;4.47;;;;;;;17.94;nan;101859.78;5019011;28;20061;-73
2023/08/16 01:08:49;;;;;;;8.27;4.25;;;;;;;18.04;nan;101876.13;5022646;28;20030;-73
2023/08/16 01:11:20;;;;;;;7.13;4.20;;;;;;;18.04;nan;101879.59;5021241;28;20119;-73
2023/08/16 01:14:09;;;;;;;7.18;3.90;;;;;;;18.10;nan;101881.16;5021502;28;20065;-73
2023/08/16 01:16:38;;;;;;;9.00;4.80;;;;;;;18.14;nan;101882.75;5023812;28;20033;-73
2023/08/16 01:19:13;;;;;;;5.43;3.70;;;;;;;18.16;nan;101879.16;5023108;28;20056;-73
2023/08/16 01:21:46;;;;;;;8.55;3.88;;;;;;;18.08;nan;101872.44;5016288;28;20026;-73
2023/08/16 01:24:22;;;;;;;6.28;3.67;;;;;;;18.17;nan;101891.41;5022975;28;20030;-73
2023/08/16 01:26:48;;;;;;;5.38;3.60;;;;;;;18.17;nan;101895.84;5020648;28;20800;-73
2023/08/16 01:29:15;;;;;;;8.45;4.18;;;;;;;18.18;nan;101894.91;5018783;28;20030;-74
2023/08/16 01:31:40;;;;;;;11.60;5.13;;;;;;;18.18;nan;101897.53;5024891;28;20022;-74
2023/08/16 01:34:07;;;;;;;9.32;6.30;;;;;;;18.14;nan;101893.31;5022769;28;20038;-73
2023/08/16 01:36:32;;;;;;;8.82;5.95;;;;;;;18.16;nan;101892.34;5024602;28;20057;-73
2023/08/16 01:38:58;;;;;;;11.45;5.57;;;;;;;18.17;nan;101890.56;5024485;28;20053;-73
2023/08/16 01:41:45;;;;;;;10.23;5.22;;;;;;;18.19;nan;101900.13;5021857;28;20340;-73
2023/08/16 01:44:12;;;;;;;8.93;5.97;;;;;;;18.13;nan;101895.09;5023663;28;20099;-73
2023/08/16 01:46:39;;;;;;;10.70;6.43;;;;;;;18.06;nan;101895.41;5024720;28;20037;-73
2023/08/16 01:49:05;;;;;;;9.00;6.03;;;;;;;18.07;nan;101897.97;5025190;28;20032;-73
2023/08/16 01:51:31;;;;;;;9.60;6.03;;;;;;;18.06;nan;101898.03;5020943;28;20022;-73
2023/08/16 01:53:57;;;;;;;11.93;6.15;;;;;;;17.98;nan;101901.81;5028179;28;20172;-73
2023/08/16 01:56:22;;;;;;;8.95;6.22;;;;;;;17.94;nan;101891.44;5019997;28;20032;-73
2023/08/16 01:58:47;;;;;;;11.65;6.60;;;;;;;17.95;nan;101901.94;5011146;28;20081;-73
2023/08/16 02:01:14;;;;;;;9.18;7.15;;;;;;;17.93;nan;101895.00;5020684;28;20017;-73
2023/08/16 02:03:40;;;;;;;9.85;6.47;;;;;;;17.89;nan;101888.13;5021268;28;20108;-73
2023/08/16 02:06:05;;;;;;;10.65;6.57;;;;;;;17.84;nan;101898.81;5025402;28;20176;-73
2023/08/16 02:08:31;;;;;;;9.82;6.72;;;;;;;17.74;nan;101897.41;5020651;28;20105;-73
2023/08/16 02:10:56;;;;;;;9.52;6.78;;;;;;;17.60;nan;101891.78;5017650;28;20042;-73
2023/08/16 02:13:21;;;;;;;11.57;6.88;;;;;;;17.64;nan;101907.44;5022187;28;20030;-73
2023/08/16 02:15:47;;;;;;;10.68;6.50;;;;;;;17.61;nan;101901.41;5027792;28;20029;-73
2023/08/16 02:18:13;;;;;;;8.10;6.03;;;;;;;17.51;nan;101901.75;5019216;28;20029;-74
2023/08/16 02:20:38;;;;;;;9.10;6.30;;;;;;;17.49;nan;101910.59;5023708;28;20025;-73
2023/08/16 02:23:05;;;;;;;8.63;5.97;;;;;;;17.51;nan;101903.53;5022101;28;20083;-73
2023/08/16 02:25:31;;;;;;;10.82;6.18;;;;;;;17.59;nan;101904.09;5013348;28;20030;-73
2023/08/16 02:27:56;;;;;;;8.85;6.22;;;;;;;17.64;nan;101910.06;5023741;28;20480;-73
2023/08/16 02:30:21;;;;;;;9.93;6.53;;;;;;;17.68;nan;101911.69;5020142;28;20033;-73
2023/08/16 02:32:46;;;;;;;11.30;6.63;;;;;;;17.69;nan;101907.25;5024126;28;20041;-73
2023/08/16 02:35:12;;;;;;;10.00;6.97;;;;;;;17.64;nan;101883.69;5021970;28;20045;-73
2023/08/16 02:37:37;;;;;;;10.10;6.50;;;;;;;17.71;nan;101903.66;5023116;28;20029;-73
2023/08/16 02:40:03;;;;;;;11.02;6.85;;;;;;;17.72;nan;101900.13;5023430;28;20024;-73
2023/08/16 02:42:29;;;;;;;8.85;6.47;;;;;;;17.70;nan;101899.31;5018544;28;20037;-73
2023/08/16 02:44:54;;;;;;;7.50;6.22;;;;;;;17.69;nan;101894.97;5022944;28;20164;-73
2023/08/16 02:47:19;;;;;;;11.32;6.50;;;;;;;17.68;nan;101887.09;5021864;28;20462;-73
2023/08/16 02:49:45;;;;;;;10.15;6.75;;;;;;;17.62;nan;101885.53;5023543;28;20079;-73
2023/08/16 02:52:10;;;;;;;11.25;7.45;;;;;;;17.55;nan;101882.25;5020956;28;20048;-73
2023/08/16 02:54:35;;;;;;;9.35;7.00;;;;;;;17.45;nan;101885.28;5019230;28;20116;-73
2023/08/16 02:57:01;;;;;;;11.77;7.93;;;;;;;17.48;nan;101899.22;5015800;28;20032;-73
2023/08/16 02:59:26;;;;;;;10.98;7.95;;;;;;;17.48;nan;101891.31;5019406;28;20116;-73
2023/08/16 03:01:51;;;;;;;13.63;7.63;;;;;;;17.47;nan;101886.09;5023411;28;20148;-73
2023/08/16 03:04:17;;;;;;;11.77;7.95;;;;;;;17.45;nan;101894.03;5022491;28;20100;-73
2023/08/16 03:06:42;;;;;;;12.25;7.70;;;;;;;17.49;nan;101900.97;5015449;28;20103;-74
2023/08/16 03:09:07;;;;;;;9.13;7.65;;;;;;;17.55;nan;101903.34;5023211;28;20022;-74
2023/08/16 03:11:32;;;;;;;10.95;7.88;;;;;;;17.55;nan;101894.56;5022768;28;20541;-73
2023/08/16 03:13:58;;;;;;;14.00;7.95;;;;;;;17.57;nan;101897.19;5021901;28;20034;-73
2023/08/16 03:16:23;;;;;;;11.65;7.90;;;;;;;17.57;nan;101897.19;5022003;28;20547;-73
2023/08/16 03:18:49;;;;;;;10.20;7.78;;;;;;;17.59;nan;101901.44;5020229;28;20018;-73
2023/08/16 03:21:14;;;;;;;10.70;8.25;;;;;;;17.61;nan;101909.31;5025555;28;20025;-74
2023/08/16 03:23:39;;;;;;;12.10;8.20;;;;;;;17.55;nan;101908.63;5018639;28;20022;-74
2023/08/16 03:26:04;;;;;;;12.93;7.90;;;;;;;17.54;nan;101903.41;5022064;28;20030;-74
2023/08/16 03:28:30;;;;;;;10.35;7.53;;;;;;;17.54;nan;101896.34;5007992;28;20114;-74
2023/08/16 03:30:55;;;;;;;10.95;7.93;;;;;;;17.49;nan;101889.53;5027212;28;20096;-73
2023/08/16 03:33:20;;;;;;;13.15;8.30;;;;;;;17.47;nan;101897.50;5012926;28;20120;-74
2023/08/16 03:35:46;;;;;;;9.50;7.63;;;;;;;17.39;nan;101893.41;5009641;28;20458;-73
2023/08/16 03:38:11;;;;;;;11.27;8.27;;;;;;;17.28;nan;101907.81;5024416;28;20029;-73
2023/08/16 03:40:36;;;;;;;10.80;7.63;;;;;;;17.30;nan;101910.41;5023332;28;20469;-73
2023/08/16 03:43:02;;;;;;;13.52;8.63;;;;;;;17.22;nan;101904.53;5022242;28;20041;-73
2023/08/16 03:45:27;;;;;;;13.65;8.55;;;;;;;17.26;nan;101908.78;5013035;28;20026;-74
2023/08/16 03:47:53;;;;;;;13.10;8.60;;;;;;;17.25;nan;101914.97;5022498;28;20083;-73
2023/08/16 03:50:19;;;;;;;11.52;8.05;;;;;;;17.20;nan;101920.41;5021008;28;20025;-73
2023/08/16 03:52:44;;;;;;;13.45;9.07;;;;;;;16.94;nan;101894.06;5023121;28;20469;-74
2023/08/16 03:55:10;;;;;;;13.13;8.93;;;;;;;16.99;nan;101911.44;5019125;28;20072;-73
2023/08/16 03:57:35;;;;;;;12.55;8.68;;;;;;;16.93;nan;101916.91;5017467;28;20018;-73
2023/08/16 04:00:01;;;;;;;12.82;8.43;;;;;;;16.89;nan;101924.97;5022784;28;20036;-73
2023/08/16 04:02:26;;;;;;;10.85;8.68;;;;;;;16.84;nan;101917.22;5019422;28;20096;-73
2023/08/16 04:04:55;;;;;;;11.75;9.00;;;;;;;16.79;nan;101916.50;5019880;28;20083;-73
2023/08/16 04:07:21;;;;;;;10.43;9.15;;;;;;;16.78;nan;101926.19;5022529;28;20083;-73
2023/08/16 04:09:47;;;;;;;12.10;9.05;;;;;;;16.68;nan;101921.25;5018505;28;20021;-73
2023/08/16 04:12:12;;;;;;;12.73;8.88;;;;;;;16.70;nan;101932.56;5025622;28;20067;-73
2023/08/16 04:14:37;;;;;;;15.45;9.88;;;;;;;16.64;nan;101938.88;5015329;28;20033;-74
2023/08/16 04:17:03;;;;;;;10.10;8.55;;;;;;;16.65;nan;101939.75;5020327;28;20127;-73
2023/08/16 04:19:31;;;;;;;11.85;9.15;;;;;;;16.62;nan;101938.09;5019034;28;20492;-73
2023/08/16 04:21:56;;;;;;;12.85;8.90;;;;;;;16.65;nan;101929.22;5023947;28;20032;-73
2023/08/16 04:24:22;;;;;;;11.45;9.27;;;;;;;16.69;nan;101938.75;5023452;28;20033;-74
2023/08/16 04:26:47;;;;;;;12.90;9.02;;;;;;;16.70;nan;101924.66;5024069;28;20033;-73
2023/08/16 04:29:12;;;;;;;11.95;9.23;;;;;;;16.74;nan;101929.81;5024557;28;20029;-73
2023/08/16 04:31:38;;;;;;;11.30;9.32;;;;;;;16.75;nan;101946.50;5027566;28;20034;-73
2023/08/16 04:34:03;;;;;;;12.15;9.32;;;;;;;16.76;nan;101949.06;5021884;28;20109;-73
2023/08/16 04:36:28;;;;;;;11.27;8.93;;;;;;;16.77;nan;101937.59;5019780;28;20323;-73
2023/08/16 04:38:54;;;;;;;12.27;9.32;;;;;;;16.86;nan;101931.19;5021857;28;20038;-73
2023/08/16 04:41:19;;;;;;;19.05;9.88;;;;;;;16.89;nan;101925.81;5024537;28;20036;-73
2023/08/16 04:43:44;;;;;;;13.65;9.77;;;;;;;16.92;nan;101925.72;5017795;28;20032;-73
2023/08/16 04:46:09;;;;;;;11.98;9.35;;;;;;;16.94;nan;101917.75;5020837;28;20520;-73
2023/08/16 04:48:35;;;;;;;19.52;9.88;;;;;;;16.97;nan;101921.19;5023675;28;20121;-73
2023/08/16 04:51:00;;;;;;;15.05;9.57;;;;;;;16.89;nan;101910.03;5016445;28;20037;-73
2023/08/16 04:53:26;;;;;;;15.52;9.63;;;;;;;16.95;nan;101928.25;5026381;28;20064;-73
2023/08/16 04:55:52;;;;;;;13.48;8.88;;;;;;;16.87;nan;101918.88;5022221;28;20064;-73
2023/08/16 04:58:17;;;;;;;12.50;8.85;;;;;;;16.95;nan;101930.91;5017756;28;20065;-73
2023/08/16 05:00:42;;;;;;;12.35;9.55;;;;;;;16.88;nan;101932.03;5025241;28;20064;-73
2023/08/16 05:03:08;;;;;;;11.98;9.50;;;;;;;16.96;nan;101937.03;5024856;28;20902;-73
2023/08/16 05:05:33;;;;;;;12.40;9.48;;;;;;;16.93;nan;101937.13;5024367;28;20044;-74
2023/08/16 05:07:58;;;;;;;10.85;8.98;;;;;;;16.92;nan;101928.38;5021992;28;20026;-73
2023/08/16 05:10:24;;;;;;;12.70;9.25;;;;;;;16.88;nan;101936.44;5027111;28;20036;-73
2023/08/16 05:12:49;;;;;;;11.10;9.20;;;;;;;16.76;nan;101932.41;5022784;28;20489;-73
2023/08/16 05:15:14;;;;;;;11.13;9.57;;;;;;;16.73;nan;101945.63;5020126;28;20073;-73
2023/08/16 05:17:40;;;;;;;11.43;9.23;;;;;;;16.69;nan;101951.91;5020150;28;20097;-73
2023/08/16 05:20:06;;;;;;;13.27;9.50;;;;;;;16.67;nan;101953.72;5017854;28;20465;-73
2023/08/16 05:22:32;;;;;;;12.07;9.80;;;;;;;16.67;nan;101956.34;5024025;28;20033;-73
2023/08/16 05:24:57;;;;;;;13.50;9.20;;;;;;;16.70;nan;101956.25;5020484;28;20030;-73
2023/08/16 05:27:22;;;;;;;10.40;9.27;;;;;;;16.74;nan;101963.16;5023782;28;20100;-73
2023/08/16 05:29:48;;;;;;;11.60;9.65;;;;;;;16.80;nan;101963.00;5015353;28;20462;-73
2023/08/16 05:32:13;;;;;;;10.68;9.15;;;;;;;16.84;nan;101970.75;5023877;28;20066;-73
2023/08/16 05:34:38;;;;;;;11.35;8.65;;;;;;;16.85;nan;101956.69;5021747;28;20473;-73
2023/08/16 05:37:05;;;;;;;12.73;9.27;;;;;;;16.92;nan;101967.88;5021699;28;20384;-73
2023/08/16 05:39:31;;;;;;;11.18;9.32;;;;;;;16.90;nan;101948.63;5024269;28;20104;-73
2023/08/16 05:41:56;;;;;;;12.27;8.68;;;;;;;16.99;nan;101956.22;5022212;28;20497;-73
2023/08/16 05:44:22;;;;;;;14.60;9.05;;;;;;;16.99;nan;101953.59;5020923;28;20037;-73
2023/08/16 05:46:47;;;;;;;12.50;8.23;;;;;;;17.09;nan;101959.41;5023147;28;20029;-73
2023/08/16 05:49:12;;;;;;;10.50;8.98;;;;;;;17.12;nan;101967.22;5019498;28;20042;-73
2023/08/16 05:51:38;;;;;;;12.10;8.95;;;;;;;17.15;nan;101979.44;5019069;28;20045;-73
2023/08/16 05:54:03;;;;;;;13.68;9.38;;;;;;;17.19;nan;101979.28;5017449;28;20370;-74
2023/08/16 05:56:29;;;;;;;11.77;8.23;;;;;;;17.26;nan;101982.56;5016852;28;20044;-73
2023/08/16 05:58:54;;;;;;;10.98;8.30;;;;;;;17.28;nan;101993.94;5025277;28;20164;-73
2023/08/16 06:01:19;;;;;;;14.13;8.00;;;;;;;17.27;nan;101984.31;5014653;28;20084;-73
2023/08/16 06:03:45;;;;;;;10.88;8.07;;;;;;;17.29;nan;101987.75;5027331;28;20462;-73
2023/08/16 06:06:10;;;;;;;10.05;7.60;;;;;;;17.30;nan;101984.22;5020686;28;20456;-73
2023/08/16 06:08:35;;;;;;;12.15;7.63;;;;;;;17.38;nan;101987.44;5018711;28;20026;-74
2023/08/16 06:11:01;;;;;;;11.43;7.90;;;;;;;17.45;nan;101981.03;5020070;28;20025;-73
2023/08/16 06:13:27;;;;;;;12.63;7.45;;;;;;;17.52;nan;101974.63;5015782;28;20030;-74
2023/08/16 06:15:52;;;;;;;9.48;7.82;;;;;;;17.67;nan;101975.03;5020617;28;20458;-73
2023/08/16 06:18:17;;;;;;;13.27;7.47;;;;;;;17.68;nan;101976.75;5020343;28;21979;-74
2023/08/16 06:20:43;;;;;;;9.48;7.45;;;;;;;17.68;nan;101977.59;5028151;28;20037;-73
2023/08/16 06:23:09;;;;;;;10.63;7.93;;;;;;;17.65;nan;101979.50;5019967;28;20048;-73
2023/08/16 06:25:34;;;;;;;12.93;8.20;;;;;;;17.61;nan;101977.88;5025992;28;20056;-72
2023/08/16 06:27:59;;;;;;;13.18;7.40;;;;;;;17.60;nan;101978.81;5012544;28;20061;-72
2023/08/16 06:30:25;;;;;;;12.88;7.88;;;;;;;17.65;nan;101979.50;5006268;28;20048;-72
2023/08/16 06:32:50;;;;;;;10.32;7.95;;;;;;;17.74;nan;101979.19;5019101;28;20026;-72
2023/08/16 06:35:15;;;;;;;11.88;7.50;;;;;;;17.85;nan;101969.13;5022536;28;20099;-73
2023/08/16 06:37:40;;;;;;;10.68;8.00;;;;;;;18.07;nan;101984.19;5023129;28;20057;-72
2023/08/16 06:40:07;;;;;;;10.35;6.95;;;;;;;18.07;nan;101976.28;5021783;28;20021;-71
2023/08/16 06:42:32;;;;;;;11.77;7.03;;;;;;;18.23;nan;101985.34;5021706;28;20112;-72
2023/08/16 06:44:58;;;;;;;9.57;7.72;;;;;;;18.15;nan;101975.06;5022723;28;20530;-72
2023/08/16 06:47:23;;;;;;;11.82;7.55;;;;;;;18.20;nan;101977.53;5018960;28;20026;-72
2023/08/16 06:49:48;;;;;;;9.80;6.47;;;;;;;18.23;nan;101978.28;5023545;28;20026;-71
2023/08/16 06:52:14;;;;;;;7.93;6.78;;;;;;;18.29;nan;101987.75;5019150;28;20057;-72
2023/08/16 06:54:41;;;;;;;8.32;6.47;;;;;;;18.37;nan;101990.94;5014220;28;20067;-72
2023/08/16 06:57:06;;;;;;;9.55;6.68;;;;;;;18.46;nan;101998.53;5009373;28;20028;-72
2023/08/16 06:59:32;;;;;;;9.82;5.82;;;;;;;18.46;nan;101987.97;5011430;28;20030;-73
2023/08/16 07:01:58;;;;;;;11.73;6.63;;;;;;;18.70;nan;101998.50;5019035;28;20557;-73
2023/08/16 07:04:24;;;;;;;12.40;6.50;;;;;;;18.80;nan;102007.84;5019060;28;20068;-73
2023/08/16 07:06:49;;;;;;;11.18;6.13;;;;;;;18.94;nan;101997.56;5020131;28;20061;-73
2023/08/16 07:09:14;;;;;;;7.97;5.95;;;;;;;19.10;nan;101996.97;5022955;28;20034;-73
2023/08/16 07:11:40;;;;;;;9.40;6.05;;;;;;;19.14;nan;101991.47;5021396;28;20488;-73
2023/08/16 07:14:05;;;;;;;13.65;5.55;;;;;;;19.22;nan;101980.56;5023236;28;20030;-73
2023/08/16 07:16:31;;;;;;;7.40;5.50;;;;;;;19.23;nan;101974.38;5021637;28;20110;-72
2023/08/16 07:18:56;;;;;;;10.73;5.80;;;;;;;19.25;nan;101984.88;5020719;28;20026;-73
2023/08/16 07:21:22;;;;;;;6.97;4.78;;;;;;;19.14;nan;101980.03;5025764;28;20076;-72
2023/08/16 07:23:47;;;;;;;6.80;5.63;;;;;;;19.07;nan;101995.28;5019988;28;20022;-73
2023/08/16 07:26:12;;;;;;;7.65;4.88;;;;;;;19.02;nan;102002.53;5026255;28;20048;-73
2023/08/16 07:28:38;;;;;;;8.05;4.82;;;;;;;19.11;nan;102006.59;5019888;28;20049;-72
2023/08/16 07:31:03;;;;;;;6.20;4.53;;;;;;;19.15;nan;102010.81;5015612;28;20420;-73
2023/08/16 07:33:30;;;;;;;7.57;4.50;;;;;;;19.21;nan;102012.38;5018166;28;20072;-73
2023/08/16 07:36:00;;;;;;;12.10;4.45;;;;;;;19.35;nan;102007.34;5027419;28;20017;-73
2023/08/16 07:38:25;;;;;;;9.30;3.95;;;;;;;19.37;nan;101998.44;5019344;28;20029;-73
2023/08/16 07:40:51;;;;;;;8.60;3.90;;;;;;;19.52;nan;102004.00;5025442;28;20059;-73
2023/08/16 07:43:16;;;;;;;4.63;3.72;;;;;;;19.67;nan;102013.09;5024001;28;20053;-73
2023/08/16 07:45:41;;;;;;;8.85;4.30;;;;;;;19.71;nan;102004.09;5023546;28;20080;-73
2023/08/16 07:48:07;;;;;;;6.05;3.42;;;;;;;19.81;nan;102002.78;5027312;28;20033;-73
2023/08/16 07:50:32;;;;;;;9.32;3.85;;;;;;;19.97;nan;102010.91;5024273;28;20033;-73
2023/08/16 07:52:57;;;;;;;7.70;3.85;;;;;;;20.08;nan;102001.56;5026705;28;20105;-73
2023/08/16 07:55:29;;;;;;;5.63;3.38;;;;;;;20.27;nan;102020.13;5025122;28;20045;-73
2023/08/16 07:57:54;;;;;;;5.10;3.47;;;;;;;20.42;nan;102013.25;5018354;28;20032;-73
2023/08/16 08:00:20;;;;;;;5.75;3.00;;;;;;;20.45;nan;102013.13;5026277;28;20030;-73
2023/08/16 08:02:45;;;;;;;5.30;3.60;;;;;;;20.41;nan;102013.34;5023542;28;20084;-73
2023/08/16 08:05:10;;;;;;;6.63;2.95;;;;;;;20.32;nan;101998.72;5025947;28;20029;-73
2023/08/16 08:07:35;;;;;;;5.07;3.08;;;;;;;20.44;nan;102013.22;5026237;28;20025;-73
2023/08/16 08:10:01;;;;;;;7.32;3.13;;;;;;;20.45;nan;102020.22;5025296;28;20461;-73
2023/08/16 08:12:26;;;;;;;4.75;3.50;;;;;;;20.45;nan;102020.22;5026043;28;20120;-73
2023/08/16 08:14:51;;;;;;;7.68;3.60;;;;;;;20.51;nan;102028.78;5025441;28;20512;-73
2023/08/16 08:17:17;;;;;;;8.73;3.35;;;;;;;20.55;nan;102027.69;5023444;28;20069;-73
2023/08/16 08:19:42;;;;;;;5.53;3.97;;;;;;;20.51;nan;102030.56;5026172;28;20076;-73
2023/08/16 08:22:09;;;;;;;6.93;3.63;;;;;;;20.53;nan;102032.19;5024962;28;20117;-73
2023/08/16 08:24:35;;;;;;;4.03;3.30;;;;;;;20.60;nan;102027.50;5025875;28;20075;-73
2023/08/16 08:27:00;;;;;;;5.70;3.85;;;;;;;20.58;nan;102024.91;5025734;28;20029;-74
2023/08/16 08:29:25;;;;;;;6.13;4.40;;;;;;;20.61;nan;102018.59;5024677;28;20445;-73
2023/08/16 08:31:53;;;;;;;8.68;3.80;;;;;;;20.67;nan;102028.06;5026620;28;20076;-73
2023/08/16 08:34:19;;;;;;;5.70;3.35;;;;;;;20.85;nan;102023.66;5024619;28;20555;-73
2023/08/16 08:36:45;;;;;;;6.00;4.05;;;;;;;21.06;nan;102030.59;5027092;28;20076;-73
2023/08/16 08:39:10;;;;;;;6.65;3.53;;;;;;;21.44;nan;102030.50;5023134;28;20021;-73
2023/08/16 08:41:37;;;;;;;5.15;3.60;;;;;;;21.69;nan;102030.13;5025758;28;20493;-74
2023/08/16 08:44:03;;;;;;;6.78;3.80;;;;;;;21.97;nan;102029.53;5022965;28;20029;-72
2023/08/16 08:46:29;;;;;;;7.38;3.45;;;;;;;22.16;nan;102032.13;5019338;28;20535;-73
2023/08/16 08:48:58;;;;;;;7.10;3.65;;;;;;;22.27;nan;102026.22;5024212;28;20529;-73
2023/08/16 08:51:28;;;;;;;6.55;3.33;;;;;;;22.38;nan;102042.44;5022347;28;20117;-73
2023/08/16 08:53:53;;;;;;;5.60;3.53;;;;;;;22.53;nan;102036.31;5025575;28;20022;-73
2023/08/16 08:56:19;;;;;;;6.40;3.55;;;;;;;22.50;nan;102043.56;5022056;28;20049;-73
2023/08/16 08:58:47;;;;;;;8.82;3.22;;;;;;;22.57;nan;102042.31;5027625;28;20068;-73
2023/08/16 09:01:14;;;;;;;5.93;3.60;;;;;;;22.42;nan;102044.00;5021356;28;20033;-73
2023/08/16 09:03:43;;;;;;;5.15;3.30;;;;;;;22.43;nan;102043.03;5028479;28;20032;-73
2023/08/16 09:06:09;;;;;;;6.13;3.05;;;;;;;22.40;nan;102037.94;5022366;28;20046;-73
2023/08/16 09:08:36;;;;;;;5.55;2.92;;;;;;;22.58;nan;102044.88;5021987;28;20026;-73
2023/08/16 09:11:02;;;;;;;5.28;3.58;;;;;;;22.65;nan;102048.91;5027190;28;20044;-73
2023/08/16 09:13:28;;;;;;;6.10;3.60;;;;;;;22.68;nan;102054.03;5021531;28;20025;-73
2023/08/16 09:15:54;;;;;;;6.25;3.85;;;;;;;22.61;nan;102035.88;5018068;28;20065;-74
2023/08/16 09:18:21;;;;;;;8.25;3.97;;;;;;;22.67;nan;102055.00;5019996;28;20119;-73
2023/08/16 09:20:48;;;;;;;5.05;3.95;;;;;;;22.74;nan;102049.34;5022328;28;20548;-73
2023/08/16 09:23:14;;;;;;;8.68;3.80;;;;;;;22.91;nan;102049.25;5019530;28;20037;-73
2023/08/16 09:25:41;;;;;;;7.93;3.97;;;;;;;22.95;nan;102040.19;5026664;28;20040;-73
2023/08/16 09:28:10;;;;;;;10.43;3.53;;;;;;;22.96;nan;102039.25;5027084;28;20109;-74
2023/08/16 09:30:36;;;;;;;4.40;2.90;;;;;;;23.17;nan;102039.81;5026942;28;20025;-73
2023/08/16 09:33:02;;;;;;;4.15;3.00;;;;;;;23.36;nan;102040.47;5021157;28;20022;-73
2023/08/16 09:35:29;;;;;;;6.43;3.65;;;;;;;23.51;nan;102046.72;5022729;28;20112;-73
2023/08/16 09:37:59;;;;;;;6.40;3.70;;;;;;;23.60;nan;102034.66;5008378;28;20366;-73
2023/08/16 09:40:24;;;;;;;9.20;3.83;;;;;;;23.88;nan;102047.19;5010853;28;20520;-73
2023/08/16 09:42:50;;;;;;;7.93;3.53;;;;;;;24.06;nan;102031.88;5015436;28;20052;-73
2023/08/16 09:45:25;;;;;;;7.03;3.83;;;;;;;24.13;nan;102035.88;5023067;28;20030;-73
2023/08/16 09:47:51;;;;;;;9.55;4.28;;;;;;;24.23;nan;102034.38;5018994;28;20014;-73
2023/08/16 09:50:21;;;;;;;6.85;4.40;;;;;;;24.26;nan;102026.19;5016827;28;20037;-73
2023/08/16 09:52:49;;;;;;;5.18;3.25;;;;;;;24.19;nan;102021.34;5021924;28;20022;-73
2023/08/16 09:55:25;;;;;;;7.35;4.47;;;;;;;24.28;nan;102029.59;5015297;28;20034;-73
2023/08/16 09:57:51;;;;;;;7.32;4.53;;;;;;;24.24;nan;102024.59;5016819;28;20021;-73
2023/08/16 10:00:16;;;;;;;8.10;4.68;;;;;;;24.25;nan;102029.78;5016631;28;20503;-73
2023/08/16 10:02:43;;;;;;;6.72;3.85;;;;;;;24.27;nan;102035.03;5015608;28;20474;-73
2023/08/16 10:05:08;;;;;;;6.97;4.38;;;;;;;24.32;nan;102024.09;5018511;28;20025;-73
2023/08/16 10:07:34;;;;;;;7.85;4.18;;;;;;;24.23;nan;102025.50;5016577;28;20044;-73
2023/08/16 10:10:00;;;;;;;9.23;4.32;;;;;;;24.15;nan;102025.16;5020934;28;20097;-73
2023/08/16 10:12:28;;;;;;;8.77;4.13;;;;;;;24.05;nan;102039.03;5011938;28;20280;-73
2023/08/16 10:14:53;;;;;;;7.43;4.22;;;;;;;24.10;nan;102035.22;5024101;28;20033;-74
2023/08/16 10:17:21;;;;;;;6.25;4.22;;;;;;;24.12;nan;102036.00;5017545;28;20440;-74
2023/08/16 10:19:54;;;;;;;8.02;4.93;;;;;;;24.06;nan;102035.41;5020230;28;20049;-72
2023/08/16 10:22:23;;;;;;;;;;;;;;;24.35;nan;102035.41;5005213;28;20041;-73
2023/08/16 10:24:50;;;;;;;9.10;5.10;;;;;;;24.12;nan;102026.19;5009543;28;19917;-72
2023/08/16 10:27:19;;;;;;;8.88;5.90;;;;;;;24.13;nan;102035.03;5019591;28;20718;-74
2023/08/16 10:29:51;;;;;;;8.43;5.15;;;;;;;24.03;nan;102030.28;5011286;28;20079;-74
2023/08/16 10:32:17;;;;;;;8.82;5.35;;;;;;;24.14;nan;102021.63;5020385;28;20033;-73
2023/08/16 10:34:43;;;;;;;8.38;4.88;;;;;;;24.27;nan;102017.25;5017206;28;20038;-73
2023/08/16 10:37:10;;;;;;;8.05;5.28;;;;;;;24.47;nan;102010.69;5017410;28;20030;-73
2023/08/16 10:39:35;;;;;;;10.98;5.65;;;;;;;24.63;nan;102029.22;5017346;28;20032;-73
2023/08/16 10:42:05;;;;;;;8.98;5.00;;;;;;;24.63;nan;102023.03;5018035;28;20021;-73
2023/08/16 10:44:31;;;;;;;9.13;6.35;;;;;;;24.53;nan;102026.28;5013592;28;20029;-74
2023/08/16 10:46:57;;;;;;;12.20;5.78;;;;;;;24.63;nan;102017.72;5016089;28;20056;-73
2023/08/16 10:49:22;;;;;;;10.93;5.13;;;;;;;24.76;nan;102019.47;5019657;28;20077;-72
2023/08/16 10:51:55;;;;;;;7.97;4.30;;;;;;;24.97;nan;102022.53;5016175;28;20022;-73
2023/08/16 10:54:35;;;;;;;10.63;4.97;;;;;;;25.08;nan;102020.97;5020667;28;20033;-73
2023/08/16 10:57:05;;;;;;;8.00;4.38;;;;;;;25.08;nan;102020.97;5019761;28;20822;-73
2023/08/16 10:59:41;;;;;;;9.20;4.75;;;;;;;25.09;nan;102017.38;5018621;28;20026;-73
2023/08/16 11:02:14;;;;;;;6.93;4.68;;;;;;;25.16;nan;102018.72;5021541;28;20104;-73
2023/08/16 11:04:42;;;;;;;8.95;4.97;;;;;;;25.23;nan;102018.19;5009826;28;20034;-73
2023/08/16 11:07:08;;;;;;;6.53;4.25;;;;;;;25.23;nan;102014.66;5015277;28;20045;-73
2023/08/16 11:09:35;;;;;;;7.20;4.38;;;;;;;25.33;nan;102022.91;5021558;28;20071;-73
2023/08/16 11:12:02;;;;;;;5.57;4.18;;;;;;;25.39;nan;102011.81;5027464;28;20026;-73
2023/08/16 11:14:27;;;;;;;5.35;4.70;;;;;;;25.55;nan;102015.16;5024662;28;20038;-73
2023/08/16 11:16:56;;;;;;;7.85;4.95;;;;;;;25.53;nan;102027.75;5023897;28;20030;-73
2023/08/16 11:19:22;;;;;;;8.15;5.15;;;;;;;25.33;nan;102012.25;5025429;28;20060;-73
2023/08/16 11:21:47;;;;;;;10.35;5.35;;;;;;;25.28;nan;102025.91;5023643;28;20026;-73
2023/08/16 11:24:13;;;;;;;9.57;5.20;;;;;;;25.15;nan;102017.00;5019879;28;20043;-73
2023/08/16 11:26:38;;;;;;;8.68;5.07;;;;;;;25.11;nan;102007.44;5017775;28;20026;-73
2023/08/16 11:29:05;;;;;;;7.68;4.65;;;;;;;25.27;nan;102009.97;5026092;28;20508;-73
2023/08/16 11:31:33;;;;;;;7.45;4.50;;;;;;;25.32;nan;102011.38;5027185;28;20040;-73
2023/08/16 11:33:58;;;;;;;8.02;4.80;;;;;;;25.27;nan;102007.31;5018125;28;20053;-73